createdAt,value
2018-06-11T00:02:06.684Z,22.80
2018-06-11T00:04:36.797Z,22.20
2018-06-11T00:07:07.233Z,24.63
2018-06-11T00:09:37.209Z,23.90
2018-06-11T00:12:07.443Z,22.37
2018-06-11T00:14:37.934Z,25.80
2018-06-11T00:17:08.659Z,22.23
2018-06-11T00:19:39.249Z,23.40
2018-06-11T00:22:10.996Z,23.07
2018-06-11T00:24:40.778Z,24.20
2018-06-11T00:27:10.749Z,23.43
2018-06-11T00:29:40.694Z,22.23
2018-06-11T00:32:11.266Z,22.50
2018-06-11T00:34:42.176Z,23.17
2018-06-11T00:37:12.882Z,23.10
2018-06-11T00:39:42.892Z,21.43
2018-06-11T00:42:17.241Z,25.47
2018-06-11T00:44:48.841Z,23.70
2018-06-11T00:47:23.659Z,25.30
2018-06-11T00:49:53.916Z,23.50
2018-06-11T00:52:24.861Z,22.30
2018-06-11T00:54:55.701Z,23.07
2018-06-11T00:57:25.624Z,22.07
2018-06-11T00:59:57.675Z,24.40
2018-06-11T01:02:27.709Z,24.07
2018-06-11T01:04:57.796Z,24.20
2018-06-11T01:07:27.645Z,20.67
2018-06-11T01:09:58.227Z,23.50
2018-06-11T01:12:28.171Z,25.17
2018-06-11T01:14:59.313Z,23.40
2018-06-11T01:17:29.179Z,23.63
2018-06-11T01:19:59.528Z,22.57
2018-06-11T01:22:32.421Z,25.40
2018-06-11T01:25:02.416Z,24.00
2018-06-11T01:27:32.373Z,25.90
2018-06-11T01:30:03.156Z,24.20
2018-06-11T01:32:33.041Z,23.50
2018-06-11T01:35:03.105Z,24.97
2018-06-11T01:37:34.504Z,24.57
2018-06-11T01:40:04.342Z,24.13
2018-06-11T01:42:37.306Z,24.17
2018-06-11T01:45:08.674Z,24.83
2018-06-11T01:47:38.546Z,23.13
2018-06-11T01:50:08.740Z,22.80
2018-06-11T01:52:39.279Z,23.10
2018-06-11T01:55:10.176Z,21.30
2018-06-11T01:57:40.111Z,21.63
2018-06-11T02:00:14.040Z,23.43
2018-06-11T02:02:43.972Z,23.07
2018-06-11T02:05:15.392Z,21.33
2018-06-11T02:07:45.403Z,21.37
2018-06-11T02:10:15.293Z,21.00
2018-06-11T02:12:45.255Z,19.50
2018-06-11T02:15:15.108Z,20.33
2018-06-11T02:17:45.601Z,19.20
2018-06-11T02:20:15.459Z,18.63
2018-06-11T02:22:45.313Z,21.17
2018-06-11T02:25:15.484Z,20.13
2018-06-11T02:27:46.585Z,18.93
2018-06-11T02:30:16.432Z,21.33
2018-06-11T02:32:46.425Z,19.43
2018-06-11T02:35:16.385Z,19.37
2018-06-11T02:37:46.631Z,19.23
2018-06-11T02:40:16.535Z,18.83
2018-06-11T02:42:46.724Z,20.17
2018-06-11T02:45:16.651Z,21.03
2018-06-11T02:47:49.358Z,20.23
2018-06-11T02:50:20.513Z,21.07
2018-06-11T02:52:52.208Z,20.03
2018-06-11T02:55:24.695Z,19.57
2018-06-11T02:57:55.427Z,19.10
2018-06-11T03:00:25.380Z,19.63
2018-06-11T03:02:56.772Z,18.67
2018-06-11T03:05:29.256Z,19.40
2018-06-11T03:08:00.813Z,22.40
2018-06-11T03:10:30.880Z,19.90
2018-06-11T03:13:01.375Z,20.17
2018-06-11T03:15:31.456Z,20.50
2018-06-11T03:18:01.313Z,19.90
2018-06-11T03:20:32.789Z,21.60
2018-06-11T03:23:02.714Z,25.27
2018-06-11T03:25:32.732Z,22.67
2018-06-11T03:28:02.617Z,20.73
2018-06-11T03:30:32.480Z,20.17
2018-06-11T03:33:02.372Z,19.83
2018-06-11T03:35:32.326Z,21.97
2018-06-11T03:38:02.236Z,23.20
2018-06-11T03:40:32.136Z,22.57
2018-06-11T03:43:02.592Z,21.70
2018-06-11T03:45:32.591Z,19.80
2018-06-11T03:48:03.328Z,19.00
2018-06-11T03:50:34.063Z,18.77
2018-06-11T03:53:03.867Z,18.40
2018-06-11T03:55:33.625Z,22.47
2018-06-11T03:58:06.027Z,20.97
2018-06-11T04:00:36.309Z,21.80
2018-06-11T04:03:06.266Z,22.93
2018-06-11T04:05:38.149Z,22.30
2018-06-11T04:08:08.055Z,19.37
2018-06-11T04:10:38.037Z,20.97
2018-06-11T04:13:07.906Z,19.57
2018-06-11T04:15:38.185Z,20.07
2018-06-11T04:18:08.319Z,19.97
2018-06-11T04:20:39.208Z,19.53
2018-06-11T04:23:11.560Z,20.43
2018-06-11T04:25:41.613Z,21.13
2018-06-11T04:28:11.570Z,21.43
2018-06-11T04:30:41.403Z,19.30
2018-06-11T04:33:11.349Z,21.27
2018-06-11T04:35:41.208Z,19.77
2018-06-11T04:38:11.081Z,21.57
2018-06-11T04:40:43.284Z,21.20
2018-06-11T04:43:13.225Z,21.27
2018-06-11T04:45:43.075Z,21.70
2018-06-11T04:48:12.846Z,22.63
2018-06-11T04:50:42.864Z,20.73
2018-06-11T04:53:12.264Z,18.70
2018-06-11T04:55:42.276Z,20.03
2018-06-11T04:58:14.056Z,20.33
2018-06-11T05:00:44.575Z,24.40
2018-06-11T05:03:14.607Z,20.13
2018-06-11T05:05:45.624Z,21.00
2018-06-11T05:08:16.893Z,19.83
2018-06-11T05:10:46.930Z,17.90
2018-06-11T05:13:17.815Z,23.13
2018-06-11T05:15:51.938Z,21.00
2018-06-11T05:18:22.529Z,22.07
2018-06-11T05:20:52.432Z,20.03
2018-06-11T05:23:23.462Z,22.43
2018-06-11T05:25:55.412Z,26.53
2018-06-11T05:28:27.603Z,22.73
2018-06-11T05:30:57.718Z,23.30
2018-06-11T05:33:27.514Z,23.23
2018-06-11T05:35:58.846Z,26.03
2018-06-11T05:38:29.618Z,26.30
2018-06-11T05:40:59.501Z,24.87
2018-06-11T05:43:29.875Z,22.70
2018-06-11T05:45:59.740Z,26.17
2018-06-11T05:48:35.218Z,19.87
2018-06-11T05:51:08.307Z,22.00
2018-06-11T05:53:41.339Z,23.63
2018-06-11T05:56:12.471Z,19.10
2018-06-11T05:58:42.685Z,19.73
2018-06-11T06:01:12.641Z,25.70
2018-06-11T06:03:43.703Z,20.77
2018-06-11T06:06:15.695Z,18.60
2018-06-11T06:08:45.721Z,25.10
2018-06-11T06:11:15.680Z,18.23
2018-06-11T06:13:46.331Z,22.97
2018-06-11T06:16:17.840Z,25.13
2018-06-11T06:18:47.772Z,20.53
2018-06-11T06:21:17.769Z,22.97
2018-06-11T06:23:47.817Z,24.77
2018-06-11T06:26:17.304Z,29.10
2018-06-11T06:28:49.541Z,20.27
2018-06-11T06:31:19.464Z,18.97
2018-06-11T06:33:49.416Z,25.27
2018-06-11T06:36:22.177Z,18.50
2018-06-11T06:38:54.869Z,21.97
2018-06-11T06:41:27.238Z,23.57
2018-06-11T06:43:57.998Z,23.30
2018-06-11T06:46:27.315Z,22.67
2018-06-11T06:48:57.247Z,27.83
2018-06-11T06:51:29.196Z,23.90
2018-06-11T06:54:02.810Z,28.67
2018-06-11T06:56:33.192Z,21.93
2018-06-11T06:59:05.582Z,20.90
2018-06-11T07:01:35.657Z,24.80
2018-06-11T07:04:05.837Z,23.53
2018-06-11T07:06:35.767Z,26.27
2018-06-11T07:09:09.624Z,22.50
2018-06-11T07:11:43.392Z,33.13
2018-06-11T07:14:13.417Z,19.83
2018-06-11T07:16:45.162Z,29.97
2018-06-11T07:19:15.039Z,26.00
2018-06-11T07:21:45.195Z,27.43
2018-06-11T07:24:15.495Z,24.70
2018-06-11T07:26:46.297Z,23.53
2018-06-11T07:29:19.049Z,23.00
2018-06-11T07:31:51.816Z,20.53
2018-06-11T07:34:24.468Z,21.30
2018-06-11T07:36:59.168Z,19.37
2018-06-11T07:39:32.435Z,22.60
2018-06-11T07:42:03.347Z,20.93
2018-06-11T07:44:33.409Z,21.10
2018-06-11T07:47:04.670Z,21.80
2018-06-11T07:49:35.567Z,29.13
2018-06-11T07:52:06.816Z,24.60
2018-06-11T07:54:41.340Z,23.77
2018-06-11T07:57:12.913Z,22.07
2018-06-11T07:59:43.828Z,23.17
2018-06-11T08:02:13.764Z,22.47
2018-06-11T08:04:46.165Z,21.63
2018-06-11T08:07:16.492Z,21.37
2018-06-11T08:09:47.283Z,22.63
2018-06-11T08:12:17.221Z,23.43
2018-06-11T08:14:47.199Z,24.20
2018-06-11T08:17:20.639Z,20.57
2018-06-11T08:19:55.196Z,20.60
2018-06-11T08:22:26.832Z,23.73
2018-06-11T08:25:02.095Z,23.20
2018-06-11T08:27:32.992Z,26.47
2018-06-11T08:30:03.184Z,23.20
2018-06-11T08:32:34.507Z,24.07
2018-06-11T08:35:04.615Z,26.33
2018-06-11T08:37:34.812Z,23.13
2018-06-11T08:40:04.859Z,22.70
2018-06-11T08:42:37.067Z,22.77
2018-06-11T08:45:07.500Z,24.60
2018-06-11T08:47:37.407Z,23.77
2018-06-11T08:50:08.577Z,22.90
2018-06-11T08:52:41.388Z,26.20
2018-06-11T08:55:12.442Z,23.87
2018-06-11T08:57:43.394Z,23.20
2018-06-11T09:00:16.886Z,22.40
2018-06-11T09:02:47.562Z,21.83
2018-06-11T09:05:18.784Z,22.43
2018-06-11T09:07:52.946Z,20.73
2018-06-11T09:10:22.787Z,20.57
2018-06-11T09:12:55.087Z,21.67
2018-06-11T09:15:26.075Z,24.50
2018-06-11T09:17:57.488Z,25.73
2018-06-11T09:20:30.039Z,21.80
2018-06-11T09:23:02.446Z,24.80
2018-06-11T09:25:33.781Z,26.63
2018-06-11T09:28:04.370Z,19.53
2018-06-11T09:30:38.009Z,23.27
2018-06-11T09:33:08.943Z,24.40
2018-06-11T09:35:39.660Z,22.00
2018-06-11T09:38:09.817Z,21.67
2018-06-11T09:40:40.733Z,22.20
2018-06-11T09:43:10.758Z,26.83
2018-06-11T09:45:43.919Z,23.97
2018-06-11T09:48:16.702Z,23.00
2018-06-11T09:50:46.657Z,23.67
2018-06-11T09:53:16.690Z,21.93
2018-06-11T09:55:47.525Z,23.97
2018-06-11T09:58:20.409Z,25.20
2018-06-11T10:00:53.598Z,26.47
2018-06-11T10:03:26.592Z,25.90
2018-06-11T10:05:56.483Z,31.30
2018-06-11T10:08:48.947Z,31.83
2018-06-11T10:11:21.357Z,28.00
2018-06-11T10:13:53.240Z,29.23
2018-06-11T10:16:24.647Z,31.23
2018-06-11T10:18:55.365Z,33.60
2018-06-11T10:21:30.290Z,31.73
2018-06-11T10:24:07.500Z,31.53
2018-06-11T10:26:37.351Z,35.13
2018-06-11T10:29:09.695Z,37.57
2018-06-11T10:31:40.055Z,32.30
2018-06-11T10:34:12.905Z,34.77
2018-06-11T10:36:50.261Z,32.27
2018-06-11T10:39:23.873Z,31.30
2018-06-11T10:41:54.705Z,30.97
2018-06-11T10:44:25.411Z,30.97
2018-06-11T10:46:57.176Z,32.13
2018-06-11T10:49:28.037Z,30.53
2018-06-11T10:52:01.329Z,30.67
2018-06-11T10:54:32.225Z,32.13
2018-06-11T10:57:06.299Z,31.60
2018-06-11T10:59:37.566Z,28.77
2018-06-11T11:02:07.647Z,27.90
2018-06-11T11:04:37.850Z,28.47
2018-06-11T11:07:07.869Z,27.13
2018-06-11T11:09:38.664Z,27.47
2018-06-11T11:12:11.570Z,25.00
2018-06-11T11:14:43.573Z,25.17
2018-06-11T11:17:15.433Z,24.93
2018-06-11T11:19:45.322Z,22.83
2018-06-11T11:22:16.225Z,21.80
2018-06-11T11:24:48.633Z,19.10
2018-06-11T11:27:22.315Z,21.90
2018-06-11T11:29:53.215Z,19.87
2018-06-11T11:32:25.090Z,18.10
2018-06-11T11:34:55.091Z,19.07
2018-06-11T11:37:25.382Z,18.87
2018-06-11T11:39:55.858Z,21.77
2018-06-11T11:42:28.749Z,18.53
2018-06-11T11:45:00.744Z,20.50
2018-06-11T11:47:33.740Z,17.77
2018-06-11T11:50:06.237Z,20.33
2018-06-11T11:52:36.774Z,18.60
2018-06-11T11:55:07.665Z,18.60
2018-06-11T11:57:55.979Z,18.60
2018-06-11T12:00:27.386Z,17.03
2018-06-11T12:02:57.097Z,22.20
2018-06-11T12:05:27.632Z,20.63
2018-06-11T12:08:01.649Z,19.57
2018-06-11T12:10:35.314Z,14.10
2018-06-11T12:13:12.099Z,15.77
2018-06-11T12:15:45.514Z,14.90
2018-06-11T12:18:17.354Z,16.70
2018-06-11T12:20:49.742Z,13.13
2018-06-11T12:23:20.414Z,15.10
2018-06-11T12:25:53.198Z,16.07
2018-06-11T12:28:27.365Z,13.63
2018-06-11T12:31:03.318Z,13.20
2018-06-11T12:33:40.098Z,11.80
2018-06-11T12:36:14.510Z,14.20
2018-06-11T12:38:47.417Z,15.47
2018-06-11T12:41:18.116Z,14.07
2018-06-11T12:43:52.728Z,12.90
2018-06-11T12:46:25.350Z,15.70
2018-06-11T12:48:56.789Z,15.93
2018-06-11T12:51:31.270Z,15.27
2018-06-11T12:54:05.031Z,15.90
2018-06-11T12:56:38.364Z,13.77
2018-06-11T12:59:09.485Z,13.00
2018-06-11T13:01:40.755Z,13.03
2018-06-11T13:04:12.464Z,16.60
2018-06-11T13:06:43.428Z,16.57
2018-06-11T13:09:14.280Z,16.23
2018-06-11T13:11:51.258Z,14.57
2018-06-11T13:14:34.071Z,17.37
2018-06-11T13:17:08.219Z,15.73
2018-06-11T13:19:40.342Z,16.23
2018-06-11T13:22:33.211Z,12.83
2018-06-11T13:25:04.814Z,12.43
2018-06-11T13:27:45.031Z,17.70
2018-06-11T13:30:14.798Z,14.63
2018-06-11T13:32:48.264Z,11.23
2018-06-11T13:35:20.672Z,10.63
2018-06-11T13:37:52.387Z,11.80
2018-06-11T13:40:26.318Z,15.13
2018-06-11T13:42:57.208Z,8.43
2018-06-11T13:45:28.672Z,7.87
2018-06-11T13:48:06.339Z,10.53
2018-06-11T13:50:53.240Z,9.03
2018-06-11T13:53:26.764Z,8.47
2018-06-11T13:55:57.309Z,10.73
2018-06-11T13:58:32.651Z,6.83
2018-06-11T14:01:02.724Z,7.60
2018-06-11T14:03:32.112Z,8.20
2018-06-11T14:30:30.831Z,5.10
2018-06-11T14:33:02.570Z,7.57
2018-06-11T14:35:34.195Z,6.33
2018-06-11T14:38:05.653Z,7.03
2018-06-11T14:40:36.412Z,8.40
2018-06-11T14:43:06.104Z,6.20
2018-06-11T14:45:35.931Z,6.53
2018-06-11T14:48:06.496Z,8.17
2018-06-11T14:53:40.128Z,4.50
2018-06-11T14:56:18.905Z,6.70
2018-06-11T15:38:17.696Z,5.97
2018-06-11T15:40:50.470Z,4.80
2018-06-11T15:43:21.189Z,6.13
2018-06-11T15:45:54.915Z,5.07
2018-06-11T15:48:26.642Z,5.10
2018-06-11T15:51:04.806Z,5.07
2018-06-11T15:53:38.192Z,6.20
2018-06-11T15:56:12.775Z,5.40
2018-06-11T15:58:43.844Z,4.83
2018-06-11T16:01:15.640Z,6.80
2018-06-11T16:06:30.714Z,5.60
2018-06-11T16:09:06.150Z,5.27
2018-06-11T16:11:38.839Z,7.67
2018-06-11T16:14:15.128Z,6.30
2018-06-11T16:16:51.916Z,5.17
2018-06-11T16:19:24.329Z,6.90
2018-06-11T16:21:55.634Z,7.77
2018-06-11T16:27:06.046Z,6.83
2018-06-11T16:29:37.199Z,6.10
2018-06-11T16:32:09.212Z,6.00
2018-06-11T16:34:43.649Z,6.47
2018-06-11T16:37:15.948Z,8.17
2018-06-11T16:39:47.773Z,7.50
2018-06-11T16:42:22.097Z,8.60
2018-06-11T16:45:00.199Z,6.23
2018-06-11T16:47:33.773Z,7.80
2018-06-11T16:50:05.644Z,6.07
2018-06-11T16:52:38.139Z,6.73
2018-06-11T16:55:10.435Z,6.10
2018-06-11T16:57:44.486Z,5.43
2018-06-11T17:00:17.597Z,5.73
2018-06-11T17:02:49.448Z,7.80
2018-06-11T17:05:21.996Z,6.00
2018-06-11T17:07:52.934Z,5.70
2018-06-11T17:10:28.037Z,6.00
2018-06-11T17:12:59.638Z,6.93
2018-06-11T17:15:34.124Z,8.57
2018-06-11T17:18:05.052Z,6.20
2018-06-11T17:20:37.485Z,7.80
2018-06-11T17:23:09.691Z,6.50
2018-06-11T17:25:41.337Z,5.77
2018-06-11T17:30:49.885Z,7.00
2018-06-11T17:33:30.115Z,6.70
2018-06-11T17:36:04.257Z,6.90
2018-06-11T17:38:37.456Z,5.80
2018-06-11T17:41:09.127Z,7.37
2018-06-11T17:43:50.000Z,5.53
2018-06-11T17:49:04.031Z,11.70
2018-06-11T17:51:36.724Z,5.27
2018-06-11T17:54:16.067Z,5.83
2018-06-11T17:56:48.350Z,7.53
2018-06-11T17:59:23.717Z,14.70
2018-06-11T18:01:54.481Z,6.63
2018-06-11T18:04:27.266Z,9.20
2018-06-11T18:07:01.409Z,8.00
2018-06-11T18:09:33.051Z,6.97
2018-06-11T18:12:05.381Z,6.60
2018-06-11T18:14:36.394Z,12.10
2018-06-11T18:19:46.731Z,7.00
2018-06-11T18:22:23.707Z,7.50
2018-06-11T18:25:01.897Z,6.87
2018-06-11T18:31:13.742Z,9.97
2018-06-11T18:33:53.112Z,7.37
2018-06-11T18:36:29.714Z,7.07
2018-06-11T18:39:14.772Z,7.43
2018-06-11T18:41:51.568Z,7.50
2018-06-11T18:44:31.272Z,8.00
2018-06-11T18:47:03.382Z,7.20
2018-06-11T18:49:39.728Z,7.63
2018-06-11T18:52:18.165Z,8.20
2018-06-11T18:54:49.534Z,8.30
2018-06-11T18:57:22.109Z,8.87
2018-06-11T18:59:55.734Z,10.57
2018-06-11T19:02:33.206Z,8.00
2018-06-11T19:05:05.163Z,7.97
2018-06-11T19:07:37.423Z,8.17
2018-06-11T19:10:14.483Z,10.57
2018-06-11T19:12:50.547Z,13.53
2018-06-11T19:15:25.240Z,7.73
2018-06-11T19:17:57.312Z,8.83
2018-06-11T19:20:30.631Z,11.73
2018-06-11T19:23:01.915Z,7.53
2018-06-11T19:25:36.361Z,9.97
2018-06-11T19:28:08.653Z,9.10
2018-06-11T19:30:43.243Z,11.23
2018-06-11T19:33:25.271Z,8.47
2018-06-11T19:36:02.929Z,6.87
2018-06-11T19:38:37.782Z,7.93
2018-06-11T19:43:49.547Z,7.47
2018-06-11T19:46:23.373Z,7.70
2018-06-11T19:48:56.369Z,8.45
2018-06-11T19:51:31.345Z,8.47
2018-06-11T19:54:05.325Z,8.07
2018-06-11T19:56:42.670Z,8.70
2018-06-11T19:59:16.234Z,9.30
2018-06-11T20:01:49.766Z,11.83
2018-06-11T20:04:25.668Z,8.73
2018-06-11T20:06:59.428Z,9.17
2018-06-11T20:09:31.574Z,9.23
2018-06-11T20:12:10.565Z,7.50
2018-06-11T20:14:49.497Z,8.70
2018-06-11T20:17:22.285Z,7.33
2018-06-11T20:20:03.582Z,8.93
2018-06-11T20:22:35.527Z,9.00
2018-06-11T20:25:07.751Z,8.57
2018-06-11T20:27:43.592Z,8.70
2018-06-11T20:30:19.861Z,8.33
2018-06-11T20:32:59.088Z,7.90
2018-06-11T20:35:31.692Z,8.60
2018-06-11T20:38:03.896Z,8.53
2018-06-11T20:40:35.861Z,8.20
2018-06-11T20:43:16.529Z,7.40
2018-06-11T20:45:48.190Z,8.23
2018-06-11T20:48:41.365Z,7.93
2018-06-11T20:51:16.388Z,9.13
2018-06-11T20:53:49.746Z,7.77
2018-06-11T20:56:25.739Z,6.87
2018-06-11T20:59:05.867Z,7.37
2018-06-11T21:01:40.299Z,6.97
2018-06-11T21:04:20.139Z,7.40
2018-06-11T21:07:04.284Z,10.10
2018-06-11T21:09:37.773Z,7.30
2018-06-11T21:12:14.039Z,6.60
2018-06-11T21:14:46.281Z,7.10
2018-06-11T21:17:17.640Z,11.13
2018-06-11T21:19:50.046Z,6.50
2018-06-11T21:22:30.716Z,6.63
2018-06-11T21:25:03.167Z,7.20
2018-06-11T21:27:39.098Z,7.20
2018-06-11T21:32:50.174Z,6.00
2018-06-11T21:38:17.376Z,6.70
2018-06-11T21:40:50.169Z,6.20
2018-06-11T21:43:24.505Z,7.10
2018-06-11T21:46:00.499Z,10.43
2018-06-11T21:48:39.368Z,8.17
2018-06-11T21:51:16.635Z,7.60
2018-06-11T21:53:50.021Z,8.90
2018-06-11T21:56:22.442Z,8.37
2018-06-11T21:58:53.729Z,9.20
2018-06-11T22:01:30.376Z,11.93
2018-06-11T22:04:02.560Z,8.03
2018-06-11T22:06:33.506Z,7.97
2018-06-11T22:09:05.307Z,7.37
2018-06-11T22:11:37.844Z,7.97
2018-06-11T22:14:10.664Z,8.53
2018-06-11T22:16:41.721Z,15.20
2018-06-11T22:19:14.096Z,7.77
2018-06-11T22:21:51.140Z,8.37
2018-06-11T22:24:22.596Z,8.07
2018-06-11T22:26:56.834Z,8.17
2018-06-11T22:29:29.028Z,8.70
2018-06-11T22:32:03.836Z,9.40
2018-06-11T22:37:12.635Z,8.80
2018-06-11T22:39:46.706Z,10.33
2018-06-11T22:42:19.283Z,9.37
2018-06-11T22:44:56.402Z,9.17
2018-06-11T22:47:27.271Z,10.00
2018-06-11T22:50:01.215Z,10.73
2018-06-11T22:52:35.095Z,9.87
2018-06-11T22:55:09.328Z,11.23
2018-06-11T22:57:42.455Z,9.67
2018-06-11T23:00:28.347Z,11.07
2018-06-11T23:03:04.990Z,9.60
2018-06-11T23:05:36.883Z,9.70
2018-06-11T23:08:08.170Z,11.43
2018-06-11T23:10:53.534Z,9.30
2018-06-11T23:13:25.140Z,9.13
2018-06-11T23:15:55.794Z,11.10
2018-06-11T23:18:26.592Z,10.43
2018-06-11T23:20:57.327Z,13.53
2018-06-11T23:23:29.250Z,10.07
2018-06-11T23:26:00.069Z,10.53
2018-06-11T23:28:30.764Z,10.50
2018-06-11T23:31:06.165Z,12.07
2018-06-11T23:33:40.378Z,11.67
2018-06-11T23:36:13.512Z,10.93
2018-06-11T23:38:44.260Z,13.03
2018-06-11T23:41:24.941Z,10.63
2018-06-11T23:43:56.511Z,10.63
2018-06-11T23:46:32.279Z,11.03
2018-06-11T23:49:03.932Z,11.90
2018-06-11T23:51:37.701Z,11.40
2018-06-11T23:54:08.436Z,13.83
2018-06-11T23:56:39.255Z,10.90
2018-06-11T23:59:11.005Z,10.97
